Address 0x6dfdf20047dfc65f8fc3f7520ecd845673c34a74

 
 
Txn Hash
Method
Block
From
To
Value [Txn Fee]
0x060354084eacd0dec1d6947c8beff23da32205b8c04a70284a638011f7a9253a0xff040000385864432023-01-27 12:16:058 hrs 29 mins ago0x6dfdf20047dfc65f8fc3f7520ecd845673c34a74OUT 0x8e6eb93d76067ac1b756b2fb0c7e8986f6a5e5810 MATIC0.00861765474 109.140879951
0x73e82a7b9c74957594cf6afb17097f01ee223d53ed0eeb89e00b5544b7b7e5630xff060000385224662023-01-25 20:45:432 days ago0x6dfdf20047dfc65f8fc3f7520ecd845673c34a74OUT 0x8e6eb93d76067ac1b756b2fb0c7e8986f6a5e5810 MATIC0.020321497793 183.712101263
0x1c0c0efa12f998dac22f60251d5f94d60246917e2659138d269f28b26bb610a20xff030000384582592023-01-24 6:03:073 days 14 hrs ago0x6dfdf20047dfc65f8fc3f7520ecd845673c34a74OUT 0x8e6eb93d76067ac1b756b2fb0c7e8986f6a5e5810 MATIC0.002737437379 41.630862744
0x07ac54bcbd439e191bc779261a08d6f29a19d24e05f3468262fdabb959d37e2c0xfcde5a65384035732023-01-22 21:20:464 days 23 hrs ago0x6dfdf20047dfc65f8fc3f7520ecd845673c34a74OUT 0x5848c128399d2c235eff26de60128451c697f3af0 MATIC0.032914053521 107.856580936
0xe2908843b8b1071b4a6db06c5025cac898c37eaf7de7a947ad98b83a2273c5bd0xff050000383603942023-01-21 19:23:106 days 1 hr ago0x6dfdf20047dfc65f8fc3f7520ecd845673c34a74OUT 0x8e6eb93d76067ac1b756b2fb0c7e8986f6a5e5810 MATIC0.004796792836 50.736089398
0xef4f34a5510c4c0c8fd9697ed15d6bb9b801fb5213827bb0678a7d9599e3c196Do Swap383294672023-01-21 0:39:136 days 20 hrs ago0x6dfdf20047dfc65f8fc3f7520ecd845673c34a74OUT 0xd9590f53ce1d043393692be98b49c8d561e68ec00 MATIC0.015501853276 228.654393713
0xb993078b93719c4b024401a1e13c3fb136dada46eafa2b8eb01e198013f693fcDo Swap383285482023-01-21 0:06:416 days 20 hrs ago0x6dfdf20047dfc65f8fc3f7520ecd845673c34a74OUT 0xd9590f53ce1d043393692be98b49c8d561e68ec00 MATIC0.006570243148 123.079748771
0x714b9ce68810f365918c8beda34d12b663fb554c74a8684e7c6ef82322f2965dDo Swap383270312023-01-20 23:12:566 days 21 hrs ago0x6dfdf20047dfc65f8fc3f7520ecd845673c34a74OUT 0xd9590f53ce1d043393692be98b49c8d561e68ec00 MATIC0.0067734494 125.8
0x52564a63ac4924de4545cb04b959cda8cdf81ce921c3c7c4f5dc5557e7d1c7a8Do Swap383258432023-01-20 22:30:396 days 22 hrs ago0x6dfdf20047dfc65f8fc3f7520ecd845673c34a74OUT 0xd9590f53ce1d043393692be98b49c8d561e68ec00 MATIC0.006713942914 98.878409961
0x8f643cf3a1bb72b3dc0dcd34f133cbad4b13c9992ae5627a29af3c2a0ada55a6Do Swap383247072023-01-20 21:50:256 days 22 hrs ago0x6dfdf20047dfc65f8fc3f7520ecd845673c34a74OUT 0xd9590f53ce1d043393692be98b49c8d561e68ec00 MATIC0.003487814338 51.059367563
0x2cd0f17b8b544a8aa99ceb1aecc3362d5e9d000d45a8520f9c3bb09e9deb1e3aDo Swap383234942023-01-20 21:07:276 days 23 hrs ago0x6dfdf20047dfc65f8fc3f7520ecd845673c34a74OUT 0xd9590f53ce1d043393692be98b49c8d561e68ec00 MATIC0.065798407 253.100000001
0xb00f8d3e8919f9eb7a679611ea6eea0b456249aa90e37fe8790fa69e2352fe2bDo Swap383228042023-01-20 20:42:297 days 3 mins ago0x6dfdf20047dfc65f8fc3f7520ecd845673c34a74OUT 0xd9590f53ce1d043393692be98b49c8d561e68ec00 MATIC0.00758578688 111.746315481
0x0626f36cdab29510cde1663b0df68a62f8e2ca63543ff4a3b8bd3cc8fd29605aDo Swap383221902023-01-20 20:20:117 days 25 mins ago0x6dfdf20047dfc65f8fc3f7520ecd845673c34a74OUT 0xd9590f53ce1d043393692be98b49c8d561e68ec00 MATIC0.015984015353 234.731116141
0x3ca6d36fc89e41271ca64326604dcd389a1b0fcf7262bf190e53fa075c60deff0xff040000383181592023-01-20 17:52:557 days 2 hrs ago0x6dfdf20047dfc65f8fc3f7520ecd845673c34a74OUT 0x8e6eb93d76067ac1b756b2fb0c7e8986f6a5e5810 MATIC0.022208589932 64.029563101
0x6e42703f00bf7661b6c0a65fcc4811f25e6efdce9108d03a994f18e48d1f40ab0xfcde5a65383140762023-01-20 15:24:117 days 5 hrs ago0x6dfdf20047dfc65f8fc3f7520ecd845673c34a74OUT 0x5848c128399d2c235eff26de60128451c697f3af0 MATIC0.122309188182 122.726704431
0x98887306f8da6bf00d746573fb46381ccfa17f3a6b90f35bb3db649e15d1bcf2Do Swap383105902023-01-20 13:17:377 days 7 hrs ago0x6dfdf20047dfc65f8fc3f7520ecd845673c34a74OUT 0xd9590f53ce1d043393692be98b49c8d561e68ec00 MATIC0.006965750779 102.601976395
0x24c6660138f7087d41cf8edf768ba6b1902ce07ca10c5d885f89816b5d5efcc7Do Swap383091962023-01-20 12:27:097 days 8 hrs ago0x6dfdf20047dfc65f8fc3f7520ecd845673c34a74OUT 0xd9590f53ce1d043393692be98b49c8d561e68ec00 MATIC0.017796033627 215.320616431
0xd7014540b9626653547b437a4621fb3f20559f79981ac614e5d0789054919801Do Swap383081752023-01-20 11:50:197 days 8 hrs ago0x6dfdf20047dfc65f8fc3f7520ecd845673c34a74OUT 0xd9590f53ce1d043393692be98b49c8d561e68ec00 MATIC0.008264030428 121.724977226
0x8332a078298e770a5b760815120f3f0f7f2785967621ad28d15497ded3bf5efbDo Swap383073562023-01-20 11:20:457 days 9 hrs ago0x6dfdf20047dfc65f8fc3f7520ecd845673c34a74OUT 0xd9590f53ce1d043393692be98b49c8d561e68ec00 MATIC0.005061737024 74.556819384
0x00bd68808f93ce1e4ad13b3e0d9fbafb1da851a59e1f9735bf4e4b83dc6f41d1Do Swap383061142023-01-20 10:36:147 days 10 hrs ago0x6dfdf20047dfc65f8fc3f7520ecd845673c34a74OUT 0xd9590f53ce1d043393692be98b49c8d561e68ec00 MATIC0.005946683171 87.591627336
0x44a9ff9ec67e5e9590687b7903ba85e6dd14db166a8fa87e27f0429c317fec18Do Swap383053192023-01-20 10:07:267 days 10 hrs ago0x6dfdf20047dfc65f8fc3f7520ecd845673c34a74OUT 0xd9590f53ce1d043393692be98b49c8d561e68ec00 MATIC0.002752011971 51.603449673
0x75790237f17c74366055760cf1d947c894d6d21057b2e4a11740f6b618fa1f7cDo Swap383035132023-01-20 9:02:227 days 11 hrs ago0x6dfdf20047dfc65f8fc3f7520ecd845673c34a74OUT 0xd9590f53ce1d043393692be98b49c8d561e68ec00 MATIC0.004480088787 65.704902653
0xc57e536373f412bad10336937e4d3bdaeeeb9229349b626ddbdd293c07eda408Do Swap383030122023-01-20 8:44:387 days 12 hrs ago0x6dfdf20047dfc65f8fc3f7520ecd845673c34a74OUT 0xd9590f53ce1d043393692be98b49c8d561e68ec00 MATIC0.0102171 150.000000001
0x03712c8111a962a7757e67ad667f82e1d268e53a4c5393d8bd8a2e1eea6270eaDo Swap383015202023-01-20 7:50:367 days 12 hrs ago0x6dfdf20047dfc65f8fc3f7520ecd845673c34a74OUT 0xd9590f53ce1d043393692be98b49c8d561e68ec00 MATIC0.013270409643 195.118650291
0xf2f9f82b178eae777f12ae8c54379dc3aa30164bd4cac5fb9f9cc20d9de816a8Do Swap383003672023-01-20 7:08:387 days 13 hrs ago0x6dfdf20047dfc65f8fc3f7520ecd845673c34a74OUT 0xd9590f53ce1d043393692be98b49c8d561e68ec00 MATIC0.002523428148 47.246361139
[ Download CSV Export 
Parent Txn Hash Block From To Value
Loading

Contract Name:
0 MATIC

Compiler Version
0

Optimization Enabled:
0 MATIC

Other Settings:
-NA-
Block Transaction Gas Used Reward
Age Block Fee Address BC Fee Address Voting Power Jailed Incoming
Block Uncle Number Difficulty Gas Used Reward
Loading
Loading
Make sure to use the "Vote Down" button for any spammy posts, and the "Vote Up" for interesting conversations.